Time;durP1;ratioP1;P1;durP2;ratioP2;P2;SDS_P1;SDS_P2;PMS_P1;PMS_P2;Temp;Humidity;BMP_temperature;BMP_pressure;BME280_temperature;BME280_humidity;BME280_pressure;Samples;Min_cycle;Max_cycle;Signal;HPM_P1;HPM_P2
2022/11/19 00:01:55;;;;;;;2.40;2.17;;;;;;;13.20;100.00;93847.44;5052494;28;20493;-83
2022/11/19 00:04:21;;;;;;;2.20;2.00;;;;;;;13.16;100.00;93855.81;5052433;28;20451;-83
2022/11/19 00:06:49;;;;;;;1.30;1.20;;;;;;;13.01;100.00;93838.13;5052428;28;20457;-83
2022/11/19 00:09:16;;;;;;;1.30;1.20;;;;;;;12.99;100.00;93847.16;5052487;28;20852;-85
2022/11/19 00:14:28;;;;;;;2.27;2.07;;;;;;;12.95;100.00;93859.84;5052380;28;20435;-82
2022/11/19 00:16:55;;;;;;;2.57;1.70;;;;;;;12.99;100.00;93862.94;5052100;28;20446;-83
2022/11/19 00:19:22;;;;;;;2.83;1.80;;;;;;;12.98;100.00;93870.03;5033651;28;20483;-83
2022/11/19 00:21:49;;;;;;;2.37;1.60;;;;;;;12.99;100.00;93871.66;5052168;28;20477;-84
2022/11/19 00:24:15;;;;;;;1.50;1.40;;;;;;;12.96;100.00;93873.81;5052318;28;20540;-84
2022/11/19 00:26:42;;;;;;;2.90;2.30;;;;;;;12.95;100.00;93880.91;5052486;28;20446;-83
2022/11/19 00:29:10;;;;;;;2.37;2.17;;;;;;;12.95;100.00;93873.00;5052704;28;20492;-82
2022/11/19 00:31:38;;;;;;;2.83;2.63;;;;;;;12.95;100.00;93891.44;5052218;28;20438;-83
2022/11/19 00:34:05;;;;;;;2.90;2.63;;;;;;;12.98;100.00;93875.28;5051902;28;20450;-83
2022/11/19 00:36:32;;;;;;;2.40;1.87;;;;;;;13.00;100.00;93899.66;5051782;28;20442;-83
2022/11/19 00:38:59;;;;;;;1.40;1.30;;;;;;;13.03;100.00;93906.41;5052061;28;20449;-82
2022/11/19 00:41:25;;;;;;;5.23;1.60;;;;;;;12.97;100.00;93889.44;5052065;28;20438;-84
2022/11/19 00:43:52;;;;;;;2.57;2.20;;;;;;;13.03;100.00;93894.06;5051702;28;20488;-84
2022/11/19 00:46:21;;;;;;;2.53;2.33;;;;;;;13.09;100.00;93889.09;5051729;28;20453;-83
2022/11/19 00:48:51;;;;;;;2.20;2.00;;;;;;;13.10;100.00;93885.47;5051932;28;20438;-83
2022/11/19 00:51:19;;;;;;;2.47;2.10;;;;;;;13.13;100.00;93898.31;5051758;28;20449;-83
2022/11/19 00:53:46;;;;;;;1.50;1.40;;;;;;;13.17;100.00;93875.91;5051878;28;20484;-82
2022/11/19 00:56:15;;;;;;;2.20;2.00;;;;;;;13.24;100.00;93884.78;5052766;28;20442;-82
2022/11/19 00:58:42;;;;;;;3.30;3.00;;;;;;;13.25;100.00;93894.34;5055185;28;20498;-82
2022/11/19 01:01:09;;;;;;;2.33;2.00;;;;;;;13.27;100.00;93884.44;5053997;28;20442;-83
2022/11/19 01:03:37;;;;;;;3.20;1.90;;;;;;;13.34;100.00;93885.41;5051639;28;20488;-83
2022/11/19 01:06:06;;;;;;;1.33;1.23;;;;;;;13.41;99.29;93902.19;5052137;28;20455;-83
2022/11/19 01:08:32;;;;;;;1.70;1.60;;;;;;;13.41;97.98;93893.47;5055310;28;20447;-83
2022/11/19 01:11:04;;;;;;;3.73;3.43;;;;;;;13.50;98.37;93901.16;5055438;28;20448;-82
2022/11/19 01:13:37;;;;;;;4.77;4.27;;;;;;;13.61;98.10;93903.41;5055645;28;20456;-84
2022/11/19 01:16:07;;;;;;;6.13;5.53;;;;;;;13.66;96.15;93899.44;5055579;28;20460;-82
2022/11/19 01:18:35;;;;;;;6.10;5.13;;;;;;;13.73;97.19;93895.09;5055566;28;20468;-82
2022/11/19 01:21:02;;;;;;;5.13;4.70;;;;;;;13.71;96.19;93891.81;5055590;28;20446;-83
2022/11/19 01:23:30;;;;;;;4.70;2.90;;;;;;;13.66;95.60;93905.53;5055059;28;20492;-83
2022/11/19 01:25:57;;;;;;;3.93;3.53;;;;;;;13.64;96.47;93897.78;5055157;28;20820;-79
2022/11/19 01:28:23;;;;;;;3.73;3.00;;;;;;;13.62;96.46;93907.69;5055654;28;20445;-82
2022/11/19 01:30:50;;;;;;;4.60;4.13;;;;;;;13.65;96.62;93909.16;5054968;28;20520;-82
2022/11/19 01:33:18;;;;;;;1.40;1.30;;;;;;;13.72;96.63;93904.00;5055214;28;20437;-83
2022/11/19 01:35:45;;;;;;;3.07;1.57;;;;;;;13.76;96.98;93923.75;5020177;28;20442;-82
2022/11/19 01:38:11;;;;;;;1.47;1.27;;;;;;;13.79;97.71;93912.84;5055543;28;20447;-83
2022/11/19 01:40:44;;;;;;;1.53;1.40;;;;;;;13.82;98.32;93923.88;5055436;28;20503;-83
2022/11/19 01:43:12;;;;;;;1.40;1.30;;;;;;;13.82;98.46;93931.78;5055277;28;20488;-82
2022/11/19 01:45:40;;;;;;;1.50;1.30;;;;;;;13.82;99.12;93936.25;5036150;28;20444;-83
2022/11/19 01:48:12;;;;;;;1.83;1.60;;;;;;;13.80;99.09;93935.59;5055100;28;20564;-82
2022/11/19 01:50:44;;;;;;;2.90;1.57;;;;;;;13.77;99.37;93935.94;5054381;28;20453;-82
2022/11/19 01:53:13;;;;;;;1.67;1.57;;;;;;;13.74;99.40;93949.47;5054863;28;20448;-82
2022/11/19 01:55:42;;;;;;;1.70;1.60;;;;;;;13.58;99.79;93950.34;5054773;28;20446;-82
2022/11/19 01:58:11;;;;;;;3.33;2.00;;;;;;;13.43;100.00;93942.34;5054443;28;20572;-83
2022/11/19 02:00:38;;;;;;;2.10;1.90;;;;;;;13.47;100.00;93934.94;5054430;28;20450;-82
2022/11/19 02:03:05;;;;;;;1.80;1.40;;;;;;;13.45;100.00;93929.00;5019326;28;20512;-82
2022/11/19 02:05:33;;;;;;;1.97;1.50;;;;;;;13.44;100.00;93919.47;5054984;28;20544;-82
2022/11/19 02:07:59;;;;;;;3.20;1.70;;;;;;;13.41;100.00;93918.00;5054422;28;20818;-82
2022/11/19 02:10:35;;;;;;;3.43;3.00;;;;;;;13.39;100.00;93919.16;5054792;28;20449;-82
2022/11/19 02:13:11;;;;;;;2.83;2.53;;;;;;;13.34;100.00;93922.31;5054478;28;20847;-83
2022/11/19 02:15:45;;;;;;;4.03;2.97;;;;;;;13.31;100.00;93912.13;5054613;28;20448;-82
2022/11/19 02:18:29;;;;;;;4.03;3.73;;;;;;;13.09;100.00;93923.34;5054776;28;20962;-83
2022/11/19 02:21:10;;;;;;;4.70;4.30;;;;;;;13.02;100.00;93950.38;5053927;28;20511;-82
2022/11/19 02:24:10;;;;;;;3.87;3.43;;;;;;;12.97;100.00;93952.66;5022187;28;20477;-82
2022/11/19 02:27:10;;;;;;;4.70;3.70;;;;;;;12.82;100.00;93954.34;5053827;28;20532;-83
2022/11/19 02:30:07;;;;;;;3.50;3.20;;;;;;;12.83;100.00;93969.16;5053952;28;20454;-82
2022/11/19 02:32:40;;;;;;;2.77;2.57;;;;;;;12.58;100.00;93964.88;5023989;28;20449;-82
2022/11/19 02:35:17;;;;;;;2.97;2.33;;;;;;;12.52;100.00;93966.38;5053962;28;20454;-82
2022/11/19 02:37:49;;;;;;;2.50;2.33;;;;;;;12.61;100.00;93962.72;5054308;28;20859;-82
2022/11/19 02:40:22;;;;;;;3.07;2.50;;;;;;;11.95;100.00;93953.16;5018710;28;20929;-83
2022/11/19 02:42:56;;;;;;;2.63;2.23;;;;;;;12.20;100.00;93979.50;5053623;28;20485;-82
2022/11/19 02:45:32;;;;;;;4.00;3.70;;;;;;;12.23;100.00;93987.88;5053918;28;20457;-82
2022/11/19 02:48:03;;;;;;;8.80;6.60;;;;;;;12.21;100.00;93981.97;5053907;28;20815;-82
2022/11/19 02:50:33;;;;;;;5.57;4.33;;;;;;;12.24;100.00;93997.41;5054282;28;20441;-82
2022/11/19 02:53:03;;;;;;;4.60;4.20;;;;;;;12.31;100.00;93998.41;5053250;28;20453;-82
2022/11/19 02:55:29;;;;;;;5.17;3.10;;;;;;;12.24;100.00;93980.81;5053243;28;20441;-84
2022/11/19 02:58:03;;;;;;;4.00;3.60;;;;;;;12.33;100.00;93990.34;5053536;28;20962;-82
2022/11/19 03:06:12;;;;;;;4.13;3.53;;;;;;;12.44;100.00;94005.00;5053419;28;20950;-82
2022/11/19 03:08:39;;;;;;;8.20;3.10;;;;;;;12.41;100.00;94009.59;5053326;28;20452;-83
2022/11/19 03:11:14;;;;;;;4.77;2.70;;;;;;;12.41;100.00;94014.84;5053327;28;20496;-82
2022/11/19 03:16:43;;;;;;;2.80;2.57;;;;;;;12.43;100.00;94027.03;5053473;28;20515;-82
2022/11/19 03:19:35;;;;;;;5.10;2.43;;;;;;;12.40;100.00;94025.53;5053311;28;20445;-82
2022/11/19 03:22:08;;;;;;;2.93;2.73;;;;;;;12.39;100.00;94031.78;5052951;28;20449;-82
2022/11/19 03:24:40;;;;;;;2.50;2.30;;;;;;;12.30;100.00;94027.50;5052937;28;20489;-83
2022/11/19 03:27:12;;;;;;;5.37;2.40;;;;;;;12.26;100.00;94031.44;5053062;28;20960;-82
2022/11/19 03:29:44;;;;;;;2.50;2.30;;;;;;;12.25;100.00;94021.91;5052852;28;20445;-82
2022/11/19 03:32:16;;;;;;;2.80;2.60;;;;;;;12.23;100.00;94029.97;5052781;28;20955;-82
2022/11/19 03:34:46;;;;;;;2.77;2.57;;;;;;;12.23;100.00;94034.41;5052942;28;20445;-82
2022/11/19 03:37:15;;;;;;;2.70;2.50;;;;;;;12.23;100.00;94037.03;5052669;28;20449;-82
2022/11/19 03:39:43;;;;;;;2.70;2.50;;;;;;;12.23;100.00;94027.34;5053301;28;20442;-83
2022/11/19 03:42:14;;;;;;;3.13;2.60;;;;;;;12.21;100.00;94025.84;5053186;28;20453;-79
2022/11/19 03:44:46;;;;;;;3.63;2.13;;;;;;;12.18;100.00;94037.53;5052920;28;20480;-82
2022/11/19 03:47:17;;;;;;;2.20;2.10;;;;;;;12.19;100.00;94044.44;5052696;28;20450;-82
2022/11/19 03:49:47;;;;;;;3.73;2.30;;;;;;;12.05;100.00;94029.25;5053088;28;20479;-82
2022/11/19 03:52:17;;;;;;;2.93;2.30;;;;;;;12.08;100.00;94045.53;5018141;28;20444;-82
2022/11/19 03:54:44;;;;;;;3.50;2.63;;;;;;;12.05;100.00;94045.84;5052510;28;20454;-82
2022/11/19 03:57:15;;;;;;;2.97;2.43;;;;;;;12.08;100.00;94057.84;5052352;28;20452;-83
2022/11/19 03:59:41;;;;;;;3.93;2.03;;;;;;;12.08;100.00;94049.97;5052307;28;20487;-83
2022/11/19 04:02:10;;;;;;;4.70;2.90;;;;;;;12.05;100.00;94055.53;5052128;28;20445;-81
2022/11/19 04:04:39;;;;;;;2.63;2.43;;;;;;;12.03;100.00;94058.34;5052611;28;21072;-82
2022/11/19 04:07:08;;;;;;;2.70;2.33;;;;;;;12.06;100.00;94063.28;5017764;28;20879;-82
2022/11/19 04:09:35;;;;;;;3.00;2.17;;;;;;;12.10;100.00;94069.03;5052779;28;20441;-82
2022/11/19 04:12:02;;;;;;;3.20;3.00;;;;;;;12.11;100.00;94060.16;5033693;28;20434;-82
2022/11/19 04:14:29;;;;;;;2.70;2.50;;;;;;;12.14;100.00;94075.63;5052564;28;20437;-82
2022/11/19 04:16:56;;;;;;;3.30;2.87;;;;;;;12.12;100.00;94077.59;5052475;28;20442;-82
2022/11/19 04:19:23;;;;;;;4.77;2.70;;;;;;;12.12;100.00;94089.91;5052429;28;20515;-82
2022/11/19 04:21:51;;;;;;;3.00;2.80;;;;;;;12.14;100.00;94094.03;5017146;28;20454;-82
2022/11/19 04:24:18;;;;;;;2.40;2.20;;;;;;;12.15;100.00;94093.06;5052374;28;20485;-82
2022/11/19 04:26:45;;;;;;;3.67;2.43;;;;;;;12.20;100.00;94097.84;5052326;28;20480;-82
2022/11/19 04:29:12;;;;;;;3.00;2.70;;;;;;;12.20;100.00;94085.53;5052251;28;20445;-83
2022/11/19 04:31:38;;;;;;;3.43;2.70;;;;;;;12.20;100.00;94077.63;5052182;28;20450;-82
2022/11/19 04:34:05;;;;;;;5.83;2.97;;;;;;;12.18;100.00;94087.50;5052135;28;20449;-82
2022/11/19 04:36:32;;;;;;;2.80;2.60;;;;;;;12.17;100.00;94095.53;5052313;28;20950;-81
2022/11/19 04:39:00;;;;;;;3.92;2.70;;;;;;;12.22;100.00;94096.72;5051696;28;20466;-83
2022/11/19 04:41:27;;;;;;;3.10;2.80;;;;;;;12.15;100.00;94093.06;5053242;28;20256;-82
2022/11/19 04:43:54;;;;;;;3.73;3.40;;;;;;;12.09;100.00;94085.78;5055934;28;20995;-81
2022/11/19 04:46:21;;;;;;;3.10;2.90;;;;;;;12.10;100.00;94096.16;5056118;28;20445;-82
2022/11/19 04:48:48;;;;;;;4.57;3.57;;;;;;;12.10;100.00;94105.84;5055848;28;20448;-82
2022/11/19 04:51:14;;;;;;;5.33;4.23;;;;;;;12.09;100.00;94105.03;5055991;28;20484;-81
2022/11/19 04:53:41;;;;;;;6.70;4.10;;;;;;;12.14;100.00;94112.44;5056310;28;20797;-81
2022/11/19 04:56:09;;;;;;;4.30;3.17;;;;;;;12.12;100.00;94114.41;5055642;28;20438;-82
2022/11/19 04:58:37;;;;;;;4.07;3.73;;;;;;;12.15;100.00;94118.56;5055650;28;20491;-82
2022/11/19 05:01:04;;;;;;;6.07;5.47;;;;;;;12.13;100.00;94118.69;5055709;28;20950;-82
2022/11/19 05:03:31;;;;;;;6.03;5.43;;;;;;;12.14;100.00;94128.22;5056121;28;20485;-82
2022/11/19 05:05:57;;;;;;;5.23;4.83;;;;;;;12.17;100.00;94132.38;5020441;28;20452;-82
2022/11/19 05:08:24;;;;;;;5.83;5.27;;;;;;;12.16;100.00;94155.22;5055598;28;20445;-83
2022/11/19 05:10:51;;;;;;;7.27;5.37;;;;;;;12.17;100.00;94169.19;5055474;28;20446;-82
2022/11/19 05:13:19;;;;;;;6.53;5.57;;;;;;;12.02;100.00;94169.75;5056053;28;20451;-82
2022/11/19 05:15:46;;;;;;;5.77;5.00;;;;;;;11.84;100.00;94176.03;5056511;28;20855;-83
2022/11/19 05:18:14;;;;;;;6.40;5.80;;;;;;;11.67;100.00;94185.63;5055858;28;20454;-83
2022/11/19 05:20:40;;;;;;;6.20;5.10;;;;;;;11.60;100.00;94193.28;5054093;28;20453;-81
2022/11/19 05:23:07;;;;;;;8.45;7.55;;;;;;;11.64;100.00;94197.25;5046043;28;20452;-82
2022/11/19 05:25:34;;;;;;;15.93;14.23;;;;;;;11.62;100.00;94209.72;5056833;28;20190;-82
2022/11/19 05:28:01;;;;;;;16.00;13.70;;;;;;;11.57;100.00;94209.38;5051259;28;20482;-86
2022/11/19 05:30:29;;;;;;;17.77;14.67;;;;;;;11.59;100.00;94212.66;5036646;28;20458;-86
2022/11/19 05:32:56;;;;;;;30.83;21.70;;;;;;;11.51;100.00;94215.22;5014632;28;20475;-84
2022/11/19 05:35:23;;;;;;;37.43;27.83;;;;;;;11.53;100.00;94218.50;5056678;28;20457;-84
2022/11/19 05:37:50;;;;;;;42.03;30.90;;;;;;;11.49;100.00;94214.53;5056652;28;20498;-84
2022/11/19 05:40:18;;;;;;;41.63;28.77;;;;;;;11.50;100.00;94229.31;5056462;28;20436;-84
2022/11/19 05:42:44;;;;;;;34.07;26.27;;;;;;;11.51;100.00;94217.84;5050301;28;20784;-84
2022/11/19 05:45:12;;;;;;;32.57;24.33;;;;;;;11.53;100.00;94233.44;5036259;28;21003;-85
2022/11/19 05:47:40;;;;;;;30.53;20.13;;;;;;;11.57;100.00;94245.34;5035897;28;20457;-83
2022/11/19 05:50:07;;;;;;;18.27;12.07;;;;;;;11.58;100.00;94245.19;5035342;28;20457;-84
2022/11/19 05:52:34;;;;;;;20.87;10.10;;;;;;;11.64;100.00;94251.63;5034821;28;20477;-85
2022/11/19 05:55:01;;;;;;;11.50;9.00;;;;;;;11.77;100.00;94258.13;5035928;28;20800;-86
2022/11/19 05:57:28;;;;;;;15.63;10.83;;;;;;;11.94;100.00;94268.81;5035488;28;20456;-85
2022/11/19 05:59:55;;;;;;;12.50;9.40;;;;;;;12.08;100.00;94266.44;5036612;28;20541;-86
2022/11/19 06:02:22;;;;;;;13.73;10.13;;;;;;;12.23;100.00;94269.31;5035606;28;20469;-85
2022/11/19 06:04:50;;;;;;;16.03;9.47;;;;;;;12.29;100.00;94257.34;5035647;28;20474;-84
2022/11/19 06:07:17;;;;;;;14.57;9.70;;;;;;;12.09;100.00;94269.88;5036277;28;20446;-85
2022/11/19 06:09:43;;;;;;;17.73;10.20;;;;;;;12.13;100.00;94267.75;5035592;28;20442;-85
2022/11/19 06:12:10;;;;;;;17.17;9.03;;;;;;;12.11;100.00;94267.91;5035439;28;20443;-85
2022/11/19 06:14:37;;;;;;;10.90;8.83;;;;;;;12.23;100.00;94279.84;5034710;28;20446;-83
2022/11/19 06:17:04;;;;;;;12.03;9.67;;;;;;;12.31;100.00;94286.97;5034862;28;20460;-80
2022/11/19 06:19:31;;;;;;;9.93;7.87;;;;;;;12.40;100.00;94286.84;5035811;28;20472;-82
2022/11/19 06:21:59;;;;;;;14.40;7.77;;;;;;;12.52;100.00;94294.47;5035624;28;20446;-83
2022/11/19 06:24:26;;;;;;;12.73;8.17;;;;;;;12.59;100.00;94306.03;5035261;28;20955;-83
2022/11/19 06:26:52;;;;;;;8.67;7.50;;;;;;;12.69;100.00;94317.25;5035134;28;20426;-83
2022/11/19 06:29:20;;;;;;;10.10;8.70;;;;;;;12.74;100.00;94320.28;5035237;28;20917;-83
2022/11/19 06:31:46;;;;;;;21.53;10.70;;;;;;;12.76;100.00;94320.94;5035139;28;20968;-85
2022/11/19 06:34:13;;;;;;;24.93;15.70;;;;;;;12.82;100.00;94320.31;5035048;28;20461;-84
2022/11/19 06:36:41;;;;;;;29.60;21.20;;;;;;;12.87;100.00;94320.66;5035674;28;20446;-85
2022/11/19 06:39:09;;;;;;;28.70;20.20;;;;;;;12.98;100.00;94328.25;5034972;28;20435;-82
2022/11/19 06:41:36;;;;;;;28.10;18.90;;;;;;;13.12;100.00;94334.75;5035621;28;20465;-81
2022/11/19 06:44:03;;;;;;;21.90;16.90;;;;;;;13.22;100.00;94345.19;5035077;28;20536;-79
2022/11/19 06:46:29;;;;;;;18.20;15.57;;;;;;;13.25;100.00;94345.69;5049607;28;20971;-81
2022/11/19 06:48:56;;;;;;;15.33;12.57;;;;;;;13.22;100.00;94351.28;5035410;28;20473;-80
2022/11/19 06:51:23;;;;;;;16.67;13.13;;;;;;;13.24;100.00;94361.66;5000315;28;20458;-80
2022/11/19 06:53:50;;;;;;;15.23;10.60;;;;;;;13.30;100.00;94363.66;5016086;28;20461;-81
2022/11/19 06:56:18;;;;;;;19.17;13.23;;;;;;;13.36;100.00;94362.19;5039513;28;21003;-81
2022/11/19 06:58:45;;;;;;;21.37;16.73;;;;;;;13.41;100.00;94365.19;5016037;28;20469;-81
2022/11/19 07:01:13;;;;;;;26.57;16.57;;;;;;;13.48;100.00;94356.47;5054356;28;20940;-80
2022/11/19 07:03:40;;;;;;;23.90;15.00;;;;;;;13.52;100.00;94367.50;5048625;28;20575;-81
2022/11/19 07:06:07;;;;;;;20.60;12.80;;;;;;;13.60;100.00;94362.28;5043257;28;20465;-79
2022/11/19 07:08:35;;;;;;;17.07;11.53;;;;;;;13.63;100.00;94368.03;5032724;28;20459;-80
2022/11/19 07:11:24;;;;;;;14.67;11.00;;;;;;;13.68;100.00;94372.84;5034422;28;20471;-80
2022/11/19 07:13:58;;;;;;;19.03;14.67;;;;;;;13.77;100.00;94379.75;5034107;28;20449;-81
2022/11/19 07:16:27;;;;;;;26.63;16.73;;;;;;;13.84;100.00;94372.03;5034770;28;20458;-81
2022/11/19 07:18:54;;;;;;;12.53;10.27;;;;;;;13.89;100.00;94367.94;5034436;28;20498;-80
2022/11/19 07:21:21;;;;;;;14.43;8.60;;;;;;;13.92;100.00;94364.13;5034486;28;20447;-82
2022/11/19 07:23:47;;;;;;;11.37;9.27;;;;;;;13.97;100.00;94361.00;5050227;28;20490;-82
2022/11/19 07:26:15;;;;;;;12.93;9.00;;;;;;;14.02;100.00;94363.97;5046401;28;20439;-83
2022/11/19 07:28:41;;;;;;;14.20;10.90;;;;;;;14.09;100.00;94362.31;5048674;28;20456;-82
2022/11/19 07:31:09;;;;;;;16.07;12.03;;;;;;;14.13;100.00;94351.28;5040081;28;20544;-81
2022/11/19 07:33:38;;;;;;;11.37;9.27;;;;;;;14.23;100.00;94362.50;5042223;28;20508;-82
2022/11/19 07:36:06;;;;;;;13.33;9.10;;;;;;;14.27;100.00;94377.03;5052681;28;20442;-82
2022/11/19 07:38:33;;;;;;;12.60;7.87;;;;;;;14.37;100.00;94361.00;5042956;28;20522;-82
2022/11/19 07:41:00;;;;;;;7.20;6.37;;;;;;;14.43;100.00;94373.56;5051323;28;20887;-82
2022/11/19 07:43:26;;;;;;;6.83;6.23;;;;;;;14.43;99.76;94363.00;5053252;28;20457;-81
2022/11/19 07:45:53;;;;;;;7.00;6.40;;;;;;;14.50;99.21;94379.03;5052084;28;20454;-82
2022/11/19 07:48:21;;;;;;;9.23;6.80;;;;;;;14.54;99.11;94375.88;5052640;28;20640;-82
2022/11/19 07:50:51;;;;;;;9.90;6.60;;;;;;;14.61;99.14;94389.22;5052313;28;20445;-81
2022/11/19 07:53:18;;;;;;;16.63;8.73;;;;;;;14.62;99.83;94377.69;5038158;28;20481;-84
2022/11/19 07:55:46;;;;;;;11.67;9.77;;;;;;;14.68;99.55;94378.81;5045110;28;21002;-83
2022/11/19 07:58:14;;;;;;;56.57;35.13;;;;;;;14.68;99.57;94382.28;5032562;28;20478;-82
2022/11/19 08:00:41;;;;;;;20.30;13.80;;;;;;;14.63;99.41;94378.50;5038135;28;20525;-83
2022/11/19 08:03:10;;;;;;;23.53;13.83;;;;;;;14.55;99.70;94376.72;5051222;28;20457;-84
2022/11/19 08:05:40;;;;;;;24.13;17.50;;;;;;;14.54;100.00;94386.44;5052879;28;20481;-80
2022/11/19 08:08:07;;;;;;;21.03;13.90;;;;;;;14.59;100.00;94398.31;5050089;28;20469;-82
2022/11/19 08:10:34;;;;;;;15.33;11.20;;;;;;;14.63;99.99;94400.47;5052330;28;20455;-83
2022/11/19 08:13:04;;;;;;;14.40;9.93;;;;;;;14.64;99.66;94412.66;5053887;28;20441;-82
2022/11/19 08:15:32;;;;;;;17.17;12.70;;;;;;;14.68;98.84;94418.44;5039941;28;20461;-84
2022/11/19 08:18:14;;;;;;;23.93;13.63;;;;;;;14.61;99.93;94407.72;5041715;28;20878;-82
2022/11/19 08:20:43;;;;;;;19.20;13.87;;;;;;;14.56;99.99;94408.22;5041931;28;20466;-83
2022/11/19 08:23:10;;;;;;;22.73;15.87;;;;;;;14.50;99.65;94410.72;5057703;28;20449;-83
2022/11/19 08:25:37;;;;;;;18.87;12.50;;;;;;;14.54;100.00;94412.03;5057900;28;20493;-84
2022/11/19 08:28:05;;;;;;;18.87;12.97;;;;;;;14.60;100.00;94426.38;5057704;28;20924;-83
2022/11/19 08:30:32;;;;;;;18.27;12.00;;;;;;;14.67;100.00;94425.53;5056261;28;20797;-83
2022/11/19 08:32:59;;;;;;;21.43;13.77;;;;;;;14.54;100.00;94412.03;5055915;28;20444;-83
2022/11/19 08:35:26;;;;;;;16.47;13.93;;;;;;;14.49;98.62;94416.97;5056393;28;20453;-83
2022/11/19 08:37:54;;;;;;;23.37;13.33;;;;;;;14.55;99.46;94429.50;5056235;28;20495;-83
2022/11/19 08:40:21;;;;;;;25.00;14.40;;;;;;;14.60;99.16;94427.19;5056391;28;20453;-83
2022/11/19 08:42:58;;;;;;;19.87;13.80;;;;;;;14.47;99.51;94421.59;5056237;28;20446;-83
2022/11/19 08:45:26;;;;;;;22.27;12.97;;;;;;;14.50;99.01;94421.28;5055893;28;20504;-83
2022/11/19 08:47:52;;;;;;;15.87;12.00;;;;;;;14.48;98.65;94418.78;5055965;28;20457;-83
2022/11/19 08:50:20;;;;;;;12.60;8.73;;;;;;;14.43;98.37;94415.81;5020590;28;20441;-83
2022/11/19 08:52:46;;;;;;;14.63;8.33;;;;;;;14.55;98.24;94430.34;5055946;28;21018;-83
2022/11/19 08:55:14;;;;;;;9.57;8.57;;;;;;;14.65;97.86;94429.34;5055953;28;20491;-83
2022/11/19 08:57:41;;;;;;;13.67;10.70;;;;;;;14.61;98.86;94399.78;5055461;28;20464;-83
2022/11/19 09:00:09;;;;;;;11.17;9.10;;;;;;;14.62;97.19;94409.38;5055528;28;20473;-83
2022/11/19 09:02:36;;;;;;;11.17;9.67;;;;;;;14.62;97.49;94430.50;5037057;28;20457;-83
2022/11/19 09:05:03;;;;;;;10.70;9.70;;;;;;;14.72;99.04;94439.06;5055464;28;20512;-83
2022/11/19 09:07:29;;;;;;;17.70;10.80;;;;;;;14.80;97.96;94423.22;5055954;28;20827;-82
2022/11/19 09:09:56;;;;;;;14.03;10.13;;;;;;;14.69;97.87;94420.91;5020633;28;20791;-82
2022/11/19 09:12:24;;;;;;;10.17;7.00;;;;;;;14.74;96.79;94436.25;5055719;28;20456;-83
2022/11/19 09:14:51;;;;;;;8.70;7.90;;;;;;;14.81;96.34;94443.38;5055870;28;20449;-82
2022/11/19 09:17:18;;;;;;;11.80;7.80;;;;;;;14.88;96.95;94431.13;5055883;28;20455;-83
2022/11/19 09:19:45;;;;;;;8.83;7.73;;;;;;;14.88;96.70;94444.34;5055752;28;20455;-83
2022/11/19 09:22:11;;;;;;;12.10;9.73;;;;;;;14.91;95.99;94447.63;5055394;28;20974;-82
2022/11/19 09:24:38;;;;;;;12.70;9.73;;;;;;;14.92;95.46;94446.66;5055701;28;20481;-83
2022/11/19 09:27:05;;;;;;;14.10;8.90;;;;;;;14.98;95.24;94441.50;5054711;28;20901;-85
2022/11/19 09:29:33;;;;;;;10.60;9.53;;;;;;;14.96;93.97;94432.94;5055395;28;20783;-83
2022/11/19 09:32:00;;;;;;;12.30;10.13;;;;;;;14.95;93.81;94433.09;5058171;28;20438;-84
2022/11/19 09:34:26;;;;;;;14.03;9.87;;;;;;;14.95;94.28;94427.81;5059461;28;20446;-84
2022/11/19 09:36:53;;;;;;;13.57;9.70;;;;;;;15.01;95.09;94430.59;5055924;28;20444;-83
2022/11/19 09:39:20;;;;;;;14.20;11.07;;;;;;;15.08;95.59;94425.50;5036290;28;20432;-83
2022/11/19 09:41:52;;;;;;;21.17;12.37;;;;;;;15.08;94.73;94405.19;5055274;28;20451;-83
2022/11/19 09:44:33;;;;;;;21.53;10.57;;;;;;;15.08;94.61;94410.47;5055098;28;20512;-83
2022/11/19 09:47:10;;;;;;;12.33;9.37;;;;;;;15.11;94.82;94419.88;5055406;28;20442;-83
2022/11/19 09:49:42;;;;;;;13.43;9.90;;;;;;;15.08;95.16;94404.34;5055144;28;21161;-83
2022/11/19 09:52:14;;;;;;;11.13;8.80;;;;;;;15.07;93.97;94398.25;5054902;28;20521;-84
2022/11/19 09:54:46;;;;;;;17.10;10.40;;;;;;;15.06;94.53;94391.31;5054550;28;20449;-83
2022/11/19 09:57:18;;;;;;;16.00;9.87;;;;;;;15.09;94.96;94369.00;5054564;28;20453;-83
2022/11/19 09:59:46;;;;;;;16.17;10.40;;;;;;;15.19;94.41;94369.63;5054262;28;20537;-83
2022/11/19 10:02:17;;;;;;;14.27;10.10;;;;;;;15.24;93.69;94354.06;5054612;28;20451;-84
2022/11/19 10:04:45;;;;;;;9.17;8.27;;;;;;;15.27;93.86;94360.81;5054570;28;20491;-83
2022/11/19 10:07:20;;;;;;;11.43;9.30;;;;;;;15.32;93.12;94369.06;5036099;28;20441;-83
2022/11/19 10:10:00;;;;;;;17.80;12.27;;;;;;;15.40;94.07;94376.97;5055092;28;20707;-84
2022/11/19 10:12:48;;;;;;;22.53;11.63;;;;;;;15.42;93.36;94364.41;5054845;28;20470;-84
2022/11/19 10:15:24;;;;;;;15.80;8.83;;;;;;;15.38;93.25;94342.78;5054374;28;20458;-84
2022/11/19 10:18:04;;;;;;;13.47;10.07;;;;;;;15.54;93.78;94343.69;5054747;28;20444;-84
2022/11/19 10:20:54;;;;;;;17.43;10.57;;;;;;;15.65;94.03;94343.34;5054530;28;20949;-83
2022/11/19 10:23:27;;;;;;;9.57;8.40;;;;;;;15.64;94.18;94339.03;5011846;28;20455;-83
2022/11/19 10:26:01;;;;;;;15.13;9.90;;;;;;;15.72;94.07;94339.81;5011980;28;20479;-83
2022/11/19 10:28:31;;;;;;;13.83;8.33;;;;;;;15.77;94.75;94349.88;5012211;28;20477;-83
2022/11/19 10:31:06;;;;;;;10.33;9.10;;;;;;;15.84;95.04;94348.16;5011869;28;20952;-84
2022/11/19 10:33:39;;;;;;;9.20;7.60;;;;;;;15.83;94.98;94343.88;5012254;28;20953;-83
2022/11/19 10:36:10;;;;;;;11.90;7.90;;;;;;;15.86;94.69;94334.75;5012133;28;20525;-83
2022/11/19 10:38:43;;;;;;;14.20;8.07;;;;;;;15.89;95.17;94329.94;4979400;28;20947;-83
2022/11/19 10:41:15;;;;;;;9.77;8.70;;;;;;;15.85;94.73;94333.94;5011508;28;20451;-84
2022/11/19 11:36:27;;;;;;;6.57;4.03;;;;;;;16.95;86.93;94299.88;5040950;27;2025647;-76
2022/11/19 11:38:58;;;;;;;3.20;2.90;;;;;;;17.08;87.57;94300.06;5110105;28;20655;-77
2022/11/19 11:41:33;;;;;;;7.00;3.57;;;;;;;17.25;87.06;94296.19;5110243;28;20508;-77
2022/11/19 11:44:03;;;;;;;3.20;3.00;;;;;;;17.30;86.68;94296.44;5110079;28;20778;-76
2022/11/19 11:46:46;;;;;;;4.47;2.73;;;;;;;17.42;85.87;94290.69;5058615;28;20522;-76
2022/11/19 11:49:24;;;;;;;4.20;3.80;;;;;;;17.37;85.44;94277.16;5110263;28;20443;-76
2022/11/19 11:52:03;;;;;;;5.20;3.37;;;;;;;17.44;85.98;94296.63;5110385;28;20851;-76
2022/11/19 11:54:30;;;;;;;4.70;4.03;;;;;;;17.55;85.12;94307.56;5110076;28;20442;-77
2022/11/19 11:57:13;;;;;;;4.17;3.70;;;;;;;17.51;85.40;94294.84;5110000;28;20473;-77
2022/11/19 11:59:40;;;;;;;4.73;4.23;;;;;;;17.53;84.88;94282.22;5109948;28;20991;-77
2022/11/19 12:02:17;;;;;;;4.00;3.30;;;;;;;17.57;85.03;94289.63;5109603;28;20586;-77
2022/11/19 12:04:44;;;;;;;6.00;4.53;;;;;;;17.53;84.65;94288.34;5109782;28;20452;-77
2022/11/19 12:07:24;;;;;;;3.63;3.30;;;;;;;17.50;84.94;94298.53;5109716;28;20435;-76
2022/11/19 12:10:02;;;;;;;6.37;3.93;;;;;;;17.57;85.31;94294.09;5109744;28;20447;-77
2022/11/19 12:12:36;;;;;;;5.93;3.73;;;;;;;17.58;85.48;94301.06;5109831;28;20459;-77
2022/11/19 12:15:16;;;;;;;3.90;3.50;;;;;;;17.58;84.52;94304.53;5096890;28;20444;-76
2022/11/19 12:17:50;;;;;;;9.77;4.47;;;;;;;17.52;84.55;94294.66;5095659;28;20448;-77
2022/11/19 12:20:27;;;;;;;10.00;3.93;;;;;;;17.40;85.17;94288.22;5096295;28;20444;-77
2022/11/19 12:23:11;;;;;;;5.73;3.67;;;;;;;17.46;86.37;94290.13;5096368;28;20525;-76
2022/11/19 12:25:41;;;;;;;10.27;4.60;;;;;;;17.56;86.79;94303.91;5095908;28;20444;-76
2022/11/19 12:28:25;;;;;;;10.37;5.23;;;;;;;17.63;86.54;94290.69;5096094;28;20439;-76
2022/11/19 12:31:05;;;;;;;10.30;4.57;;;;;;;17.60;85.06;94291.91;5060977;28;20432;-77
2022/11/19 12:34:02;;;;;;;5.40;3.50;;;;;;;17.69;85.05;94278.56;5095886;28;20454;-77
2022/11/19 12:36:39;;;;;;;5.57;4.83;;;;;;;17.72;85.91;94294.09;5095219;28;20463;-76
2022/11/19 12:39:23;;;;;;;5.53;3.90;;;;;;;17.69;85.08;94292.66;5095841;28;20451;-77